sensor_id;sensor_type;location;lat;lon;timestamp;P1;durP1;ratioP1;P2;durP2;ratioP2
53533;SDS011;39421;53.204;6.568;2023-11-21T00:01:57;17.48;;;5.28;;
53533;SDS011;39421;53.204;6.568;2023-11-21T00:04:23;16.55;;;5.32;;
53533;SDS011;39421;53.204;6.568;2023-11-21T00:06:50;17.85;;;5.68;;
53533;SDS011;39421;53.204;6.568;2023-11-21T00:09:16;16.10;;;4.88;;
53533;SDS011;39421;53.204;6.568;2023-11-21T00:11:43;17.20;;;5.25;;
53533;SDS011;39421;53.204;6.568;2023-11-21T00:14:10;21.40;;;5.85;;
53533;SDS011;39421;53.204;6.568;2023-11-21T00:16:36;19.20;;;5.53;;
53533;SDS011;39421;53.204;6.568;2023-11-21T00:19:03;20.13;;;5.70;;
53533;SDS011;39421;53.204;6.568;2023-11-21T00:21:29;21.30;;;6.50;;
53533;SDS011;39421;53.204;6.568;2023-11-21T00:23:56;20.85;;;5.95;;
53533;SDS011;39421;53.204;6.568;2023-11-21T00:26:22;19.48;;;5.80;;
53533;SDS011;39421;53.204;6.568;2023-11-21T00:28:49;22.08;;;6.65;;
53533;SDS011;39421;53.204;6.568;2023-11-21T00:31:15;20.33;;;6.45;;
53533;SDS011;39421;53.204;6.568;2023-11-21T00:33:42;24.83;;;6.63;;
53533;SDS011;39421;53.204;6.568;2023-11-21T00:36:08;21.67;;;6.47;;
53533;SDS011;39421;53.204;6.568;2023-11-21T00:38:37;21.98;;;6.93;;
53533;SDS011;39421;53.204;6.568;2023-11-21T00:41:05;21.42;;;7.32;;
53533;SDS011;39421;53.204;6.568;2023-11-21T00:43:31;24.17;;;7.13;;
53533;SDS011;39421;53.204;6.568;2023-11-21T00:46:03;25.00;;;7.25;;
53533;SDS011;39421;53.204;6.568;2023-11-21T00:48:30;23.13;;;7.22;;
53533;SDS011;39421;53.204;6.568;2023-11-21T00:50:56;24.65;;;7.70;;
53533;SDS011;39421;53.204;6.568;2023-11-21T00:53:22;22.58;;;7.30;;
53533;SDS011;39421;53.204;6.568;2023-11-21T00:55:48;26.08;;;8.27;;
53533;SDS011;39421;53.204;6.568;2023-11-21T00:58:14;28.42;;;8.93;;
53533;SDS011;39421;53.204;6.568;2023-11-21T01:00:40;31.88;;;8.57;;
53533;SDS011;39421;53.204;6.568;2023-11-21T01:03:06;31.48;;;8.82;;
53533;SDS011;39421;53.204;6.568;2023-11-21T01:05:33;31.65;;;8.65;;
53533;SDS011;39421;53.204;6.568;2023-11-21T01:07:59;30.90;;;9.33;;
53533;SDS011;39421;53.204;6.568;2023-11-21T01:10:25;28.95;;;9.35;;
53533;SDS011;39421;53.204;6.568;2023-11-21T01:12:51;27.60;;;9.50;;
53533;SDS011;39421;53.204;6.568;2023-11-21T01:15:17;27.20;;;9.47;;
53533;SDS011;39421;53.204;6.568;2023-11-21T01:17:44;27.42;;;8.93;;
53533;SDS011;39421;53.204;6.568;2023-11-21T01:20:10;29.92;;;9.82;;
53533;SDS011;39421;53.204;6.568;2023-11-21T01:22:37;30.65;;;9.60;;
53533;SDS011;39421;53.204;6.568;2023-11-21T01:25:04;29.48;;;9.95;;
53533;SDS011;39421;53.204;6.568;2023-11-21T01:27:33;25.55;;;9.00;;
53533;SDS011;39421;53.204;6.568;2023-11-21T01:29:59;31.00;;;10.18;;
53533;SDS011;39421;53.204;6.568;2023-11-21T01:32:25;27.95;;;9.40;;
53533;SDS011;39421;53.204;6.568;2023-11-21T01:34:51;29.90;;;9.57;;
53533;SDS011;39421;53.204;6.568;2023-11-21T01:37:18;28.27;;;9.63;;
53533;SDS011;39421;53.204;6.568;2023-11-21T01:39:44;29.38;;;9.48;;
53533;SDS011;39421;53.204;6.568;2023-11-21T01:42:12;28.77;;;9.68;;
53533;SDS011;39421;53.204;6.568;2023-11-21T01:44:38;30.02;;;9.52;;
53533;SDS011;39421;53.204;6.568;2023-11-21T01:47:05;32.27;;;9.83;;
53533;SDS011;39421;53.204;6.568;2023-11-21T01:49:35;29.10;;;10.15;;
53533;SDS011;39421;53.204;6.568;2023-11-21T01:52:01;26.80;;;9.38;;
53533;SDS011;39421;53.204;6.568;2023-11-21T01:54:29;32.70;;;10.05;;
53533;SDS011;39421;53.204;6.568;2023-11-21T01:56:57;28.40;;;9.40;;
53533;SDS011;39421;53.204;6.568;2023-11-21T01:59:28;29.75;;;9.73;;
53533;SDS011;39421;53.204;6.568;2023-11-21T02:01:56;30.87;;;10.77;;
53533;SDS011;39421;53.204;6.568;2023-11-21T02:04:22;28.92;;;9.63;;
53533;SDS011;39421;53.204;6.568;2023-11-21T02:06:48;31.17;;;9.85;;
53533;SDS011;39421;53.204;6.568;2023-11-21T02:09:16;29.50;;;9.87;;
53533;SDS011;39421;53.204;6.568;2023-11-21T02:11:42;27.80;;;9.23;;
53533;SDS011;39421;53.204;6.568;2023-11-21T02:14:09;27.70;;;9.35;;
53533;SDS011;39421;53.204;6.568;2023-11-21T02:16:36;23.73;;;9.35;;
53533;SDS011;39421;53.204;6.568;2023-11-21T02:19:03;24.85;;;8.80;;
53533;SDS011;39421;53.204;6.568;2023-11-21T02:21:34;27.60;;;9.30;;
53533;SDS011;39421;53.204;6.568;2023-11-21T02:24:01;26.38;;;9.07;;
53533;SDS011;39421;53.204;6.568;2023-11-21T02:26:27;24.17;;;8.93;;
53533;SDS011;39421;53.204;6.568;2023-11-21T02:28:53;24.27;;;8.77;;
53533;SDS011;39421;53.204;6.568;2023-11-21T02:31:19;26.30;;;8.70;;
53533;SDS011;39421;53.204;6.568;2023-11-21T02:33:45;26.02;;;9.13;;
53533;SDS011;39421;53.204;6.568;2023-11-21T02:36:12;24.00;;;8.68;;
53533;SDS011;39421;53.204;6.568;2023-11-21T02:38:38;25.53;;;9.13;;
53533;SDS011;39421;53.204;6.568;2023-11-21T02:41:05;22.52;;;8.77;;
53533;SDS011;39421;53.204;6.568;2023-11-21T02:43:31;23.70;;;8.82;;
53533;SDS011;39421;53.204;6.568;2023-11-21T02:45:57;22.70;;;8.48;;
53533;SDS011;39421;53.204;6.568;2023-11-21T02:48:23;23.52;;;8.68;;
53533;SDS011;39421;53.204;6.568;2023-11-21T02:50:50;23.73;;;8.90;;
53533;SDS011;39421;53.204;6.568;2023-11-21T02:53:18;26.02;;;9.70;;
53533;SDS011;39421;53.204;6.568;2023-11-21T02:55:44;22.17;;;8.95;;
53533;SDS011;39421;53.204;6.568;2023-11-21T02:58:10;24.52;;;8.85;;
53533;SDS011;39421;53.204;6.568;2023-11-21T03:00:36;26.58;;;9.70;;
53533;SDS011;39421;53.204;6.568;2023-11-21T03:03:05;27.13;;;9.05;;
53533;SDS011;39421;53.204;6.568;2023-11-21T03:05:31;25.30;;;9.68;;
53533;SDS011;39421;53.204;6.568;2023-11-21T03:08:00;27.27;;;10.18;;
53533;SDS011;39421;53.204;6.568;2023-11-21T03:10:26;27.10;;;10.15;;
53533;SDS011;39421;53.204;6.568;2023-11-21T03:12:52;29.45;;;10.05;;
53533;SDS011;39421;53.204;6.568;2023-11-21T03:15:18;26.00;;;10.25;;
53533;SDS011;39421;53.204;6.568;2023-11-21T03:17:45;33.47;;;11.00;;
53533;SDS011;39421;53.204;6.568;2023-11-21T03:20:14;29.35;;;10.45;;
53533;SDS011;39421;53.204;6.568;2023-11-21T03:22:41;30.27;;;9.93;;
53533;SDS011;39421;53.204;6.568;2023-11-21T03:25:07;29.58;;;10.48;;
53533;SDS011;39421;53.204;6.568;2023-11-21T03:27:36;30.70;;;10.07;;
53533;SDS011;39421;53.204;6.568;2023-11-21T03:30:04;26.70;;;10.10;;
53533;SDS011;39421;53.204;6.568;2023-11-21T03:32:31;26.35;;;10.00;;
53533;SDS011;39421;53.204;6.568;2023-11-21T03:34:58;29.83;;;10.13;;
53533;SDS011;39421;53.204;6.568;2023-11-21T03:37:25;31.95;;;10.43;;
53533;SDS011;39421;53.204;6.568;2023-11-21T03:39:52;27.88;;;9.73;;
53533;SDS011;39421;53.204;6.568;2023-11-21T03:42:18;28.10;;;9.88;;
53533;SDS011;39421;53.204;6.568;2023-11-21T03:44:45;29.57;;;9.67;;
53533;SDS011;39421;53.204;6.568;2023-11-21T03:47:11;29.08;;;9.68;;
53533;SDS011;39421;53.204;6.568;2023-11-21T03:49:37;25.70;;;9.10;;
53533;SDS011;39421;53.204;6.568;2023-11-21T03:52:03;25.70;;;9.32;;
53533;SDS011;39421;53.204;6.568;2023-11-21T03:54:30;27.23;;;9.65;;
53533;SDS011;39421;53.204;6.568;2023-11-21T03:56:56;22.73;;;9.15;;
53533;SDS011;39421;53.204;6.568;2023-11-21T03:59:22;21.67;;;9.13;;
53533;SDS011;39421;53.204;6.568;2023-11-21T04:01:49;30.63;;;9.25;;
53533;SDS011;39421;53.204;6.568;2023-11-21T04:04:16;23.67;;;9.32;;
53533;SDS011;39421;53.204;6.568;2023-11-21T04:06:42;30.77;;;10.07;;
53533;SDS011;39421;53.204;6.568;2023-11-21T04:09:10;28.90;;;9.45;;
53533;SDS011;39421;53.204;6.568;2023-11-21T04:11:36;22.88;;;9.25;;
53533;SDS011;39421;53.204;6.568;2023-11-21T04:14:02;32.85;;;10.15;;
53533;SDS011;39421;53.204;6.568;2023-11-21T04:16:28;29.33;;;10.07;;
53533;SDS011;39421;53.204;6.568;2023-11-21T04:18:54;28.15;;;10.25;;
53533;SDS011;39421;53.204;6.568;2023-11-21T04:21:20;25.63;;;10.18;;
53533;SDS011;39421;53.204;6.568;2023-11-21T04:23:46;23.48;;;9.65;;
53533;SDS011;39421;53.204;6.568;2023-11-21T04:26:13;26.75;;;9.65;;
53533;SDS011;39421;53.204;6.568;2023-11-21T04:28:39;29.80;;;11.00;;
53533;SDS011;39421;53.204;6.568;2023-11-21T04:31:05;27.23;;;10.83;;
53533;SDS011;39421;53.204;6.568;2023-11-21T04:33:32;25.43;;;10.53;;
53533;SDS011;39421;53.204;6.568;2023-11-21T04:35:58;33.78;;;11.60;;
53533;SDS011;39421;53.204;6.568;2023-11-21T04:38:24;29.73;;;10.90;;
53533;SDS011;39421;53.204;6.568;2023-11-21T04:40:50;26.27;;;10.30;;
53533;SDS011;39421;53.204;6.568;2023-11-21T04:43:17;28.85;;;11.02;;
53533;SDS011;39421;53.204;6.568;2023-11-21T04:45:43;27.65;;;10.57;;
53533;SDS011;39421;53.204;6.568;2023-11-21T04:48:09;34.05;;;11.90;;
53533;SDS011;39421;53.204;6.568;2023-11-21T04:50:35;27.38;;;10.63;;
53533;SDS011;39421;53.204;6.568;2023-11-21T04:53:02;27.40;;;10.20;;
53533;SDS011;39421;53.204;6.568;2023-11-21T04:55:28;23.50;;;9.67;;
53533;SDS011;39421;53.204;6.568;2023-11-21T04:57:54;26.30;;;10.45;;
53533;SDS011;39421;53.204;6.568;2023-11-21T05:00:20;25.52;;;10.07;;
53533;SDS011;39421;53.204;6.568;2023-11-21T05:02:46;27.63;;;9.93;;
53533;SDS011;39421;53.204;6.568;2023-11-21T05:05:13;34.70;;;10.70;;
53533;SDS011;39421;53.204;6.568;2023-11-21T05:07:39;31.87;;;10.53;;
53533;SDS011;39421;53.204;6.568;2023-11-21T05:10:06;29.83;;;9.90;;
53533;SDS011;39421;53.204;6.568;2023-11-21T05:12:36;24.52;;;9.60;;
53533;SDS011;39421;53.204;6.568;2023-11-21T05:15:05;28.80;;;9.93;;
53533;SDS011;39421;53.204;6.568;2023-11-21T05:17:35;26.60;;;10.07;;
53533;SDS011;39421;53.204;6.568;2023-11-21T05:20:02;26.08;;;9.73;;
53533;SDS011;39421;53.204;6.568;2023-11-21T05:22:29;25.35;;;10.18;;
53533;SDS011;39421;53.204;6.568;2023-11-21T05:24:55;23.20;;;9.48;;
53533;SDS011;39421;53.204;6.568;2023-11-21T05:27:21;25.40;;;10.10;;
53533;SDS011;39421;53.204;6.568;2023-11-21T05:29:47;22.20;;;9.50;;
53533;SDS011;39421;53.204;6.568;2023-11-21T05:32:13;22.52;;;10.13;;
53533;SDS011;39421;53.204;6.568;2023-11-21T05:34:40;22.40;;;9.60;;
53533;SDS011;39421;53.204;6.568;2023-11-21T05:37:06;22.27;;;9.97;;
53533;SDS011;39421;53.204;6.568;2023-11-21T05:39:32;24.33;;;10.07;;
53533;SDS011;39421;53.204;6.568;2023-11-21T05:41:58;19.00;;;9.02;;
53533;SDS011;39421;53.204;6.568;2023-11-21T05:44:25;19.92;;;8.95;;
53533;SDS011;39421;53.204;6.568;2023-11-21T05:46:51;20.40;;;9.30;;
53533;SDS011;39421;53.204;6.568;2023-11-21T05:49:17;19.07;;;8.77;;
53533;SDS011;39421;53.204;6.568;2023-11-21T05:51:47;18.92;;;9.00;;
53533;SDS011;39421;53.204;6.568;2023-11-21T05:54:13;19.33;;;9.20;;
53533;SDS011;39421;53.204;6.568;2023-11-21T05:56:39;18.00;;;8.85;;
53533;SDS011;39421;53.204;6.568;2023-11-21T05:59:05;20.52;;;9.52;;
53533;SDS011;39421;53.204;6.568;2023-11-21T06:01:31;19.77;;;9.10;;
53533;SDS011;39421;53.204;6.568;2023-11-21T06:03:58;18.27;;;9.15;;
53533;SDS011;39421;53.204;6.568;2023-11-21T06:06:24;21.43;;;9.00;;
53533;SDS011;39421;53.204;6.568;2023-11-21T06:08:51;19.77;;;9.55;;
53533;SDS011;39421;53.204;6.568;2023-11-21T06:11:17;21.93;;;9.67;;
53533;SDS011;39421;53.204;6.568;2023-11-21T06:13:43;21.38;;;9.55;;
53533;SDS011;39421;53.204;6.568;2023-11-21T06:16:10;21.27;;;10.30;;
53533;SDS011;39421;53.204;6.568;2023-11-21T06:18:38;21.00;;;9.98;;
53533;SDS011;39421;53.204;6.568;2023-11-21T06:21:05;22.13;;;10.90;;
53533;SDS011;39421;53.204;6.568;2023-11-21T06:23:31;25.48;;;12.05;;
53533;SDS011;39421;53.204;6.568;2023-11-21T06:25:57;23.40;;;11.38;;
53533;SDS011;39421;53.204;6.568;2023-11-21T06:28:23;25.20;;;12.07;;
53533;SDS011;39421;53.204;6.568;2023-11-21T06:30:49;26.60;;;12.93;;
53533;SDS011;39421;53.204;6.568;2023-11-21T06:33:15;27.25;;;12.55;;
53533;SDS011;39421;53.204;6.568;2023-11-21T06:35:42;25.17;;;12.18;;
53533;SDS011;39421;53.204;6.568;2023-11-21T06:38:08;27.60;;;12.40;;
53533;SDS011;39421;53.204;6.568;2023-11-21T06:40:34;27.10;;;12.48;;
53533;SDS011;39421;53.204;6.568;2023-11-21T06:43:00;24.50;;;11.70;;
53533;SDS011;39421;53.204;6.568;2023-11-21T06:45:26;24.10;;;11.80;;
53533;SDS011;39421;53.204;6.568;2023-11-21T06:47:52;21.33;;;10.60;;
53533;SDS011;39421;53.204;6.568;2023-11-21T06:50:18;18.80;;;9.30;;
53533;SDS011;39421;53.204;6.568;2023-11-21T06:52:46;16.77;;;8.68;;
53533;SDS011;39421;53.204;6.568;2023-11-21T06:55:12;18.10;;;8.90;;
53533;SDS011;39421;53.204;6.568;2023-11-21T06:57:38;18.38;;;9.63;;
53533;SDS011;39421;53.204;6.568;2023-11-21T07:00:04;19.17;;;9.75;;
53533;SDS011;39421;53.204;6.568;2023-11-21T07:02:34;21.58;;;11.00;;
53533;SDS011;39421;53.204;6.568;2023-11-21T07:05:00;21.15;;;11.05;;
53533;SDS011;39421;53.204;6.568;2023-11-21T07:07:27;20.10;;;11.17;;
53533;SDS011;39421;53.204;6.568;2023-11-21T07:09:53;20.33;;;11.10;;
53533;SDS011;39421;53.204;6.568;2023-11-21T07:12:19;20.23;;;11.35;;
53533;SDS011;39421;53.204;6.568;2023-11-21T07:14:48;20.90;;;11.27;;
53533;SDS011;39421;53.204;6.568;2023-11-21T07:17:14;22.73;;;12.55;;
53533;SDS011;39421;53.204;6.568;2023-11-21T07:19:42;26.27;;;12.88;;
53533;SDS011;39421;53.204;6.568;2023-11-21T07:22:08;23.75;;;12.75;;
53533;SDS011;39421;53.204;6.568;2023-11-21T07:24:34;24.00;;;13.23;;
53533;SDS011;39421;53.204;6.568;2023-11-21T07:27:01;22.02;;;12.30;;
53533;SDS011;39421;53.204;6.568;2023-11-21T07:29:29;24.75;;;13.13;;
53533;SDS011;39421;53.204;6.568;2023-11-21T07:31:55;25.50;;;13.63;;
53533;SDS011;39421;53.204;6.568;2023-11-21T07:34:21;24.80;;;13.00;;
53533;SDS011;39421;53.204;6.568;2023-11-21T07:36:47;26.73;;;14.33;;
53533;SDS011;39421;53.204;6.568;2023-11-21T07:39:14;26.17;;;14.20;;
53533;SDS011;39421;53.204;6.568;2023-11-21T07:41:41;26.05;;;14.10;;
53533;SDS011;39421;53.204;6.568;2023-11-21T07:44:13;27.20;;;14.17;;
53533;SDS011;39421;53.204;6.568;2023-11-21T07:46:39;26.60;;;13.95;;
53533;SDS011;39421;53.204;6.568;2023-11-21T07:49:05;27.85;;;15.15;;
53533;SDS011;39421;53.204;6.568;2023-11-21T07:51:32;25.85;;;14.20;;
53533;SDS011;39421;53.204;6.568;2023-11-21T07:53:58;25.80;;;14.18;;
53533;SDS011;39421;53.204;6.568;2023-11-21T07:56:25;25.58;;;14.52;;
53533;SDS011;39421;53.204;6.568;2023-11-21T07:58:52;26.92;;;14.90;;
53533;SDS011;39421;53.204;6.568;2023-11-21T08:01:18;25.45;;;13.98;;
53533;SDS011;39421;53.204;6.568;2023-11-21T08:03:44;25.17;;;14.73;;
53533;SDS011;39421;53.204;6.568;2023-11-21T08:06:12;25.02;;;14.60;;
53533;SDS011;39421;53.204;6.568;2023-11-21T08:08:38;26.60;;;15.32;;
53533;SDS011;39421;53.204;6.568;2023-11-21T08:11:04;26.75;;;15.05;;
53533;SDS011;39421;53.204;6.568;2023-11-21T08:13:33;25.75;;;14.52;;
53533;SDS011;39421;53.204;6.568;2023-11-21T08:15:59;26.80;;;14.75;;
53533;SDS011;39421;53.204;6.568;2023-11-21T08:18:28;23.13;;;14.25;;
53533;SDS011;39421;53.204;6.568;2023-11-21T08:20:55;25.50;;;14.83;;
53533;SDS011;39421;53.204;6.568;2023-11-21T08:23:21;25.65;;;14.45;;
53533;SDS011;39421;53.204;6.568;2023-11-21T08:25:50;28.50;;;15.18;;
53533;SDS011;39421;53.204;6.568;2023-11-21T08:28:17;24.30;;;14.13;;
53533;SDS011;39421;53.204;6.568;2023-11-21T08:30:44;24.33;;;14.90;;
53533;SDS011;39421;53.204;6.568;2023-11-21T08:33:15;24.75;;;14.48;;
53533;SDS011;39421;53.204;6.568;2023-11-21T08:35:41;25.90;;;14.70;;
53533;SDS011;39421;53.204;6.568;2023-11-21T08:38:08;26.20;;;15.50;;
53533;SDS011;39421;53.204;6.568;2023-11-21T08:40:35;25.92;;;14.55;;
53533;SDS011;39421;53.204;6.568;2023-11-21T08:43:01;25.98;;;14.55;;
53533;SDS011;39421;53.204;6.568;2023-11-21T08:45:29;23.10;;;14.43;;
53533;SDS011;39421;53.204;6.568;2023-11-21T08:47:56;23.50;;;13.87;;
53533;SDS011;39421;53.204;6.568;2023-11-21T08:50:22;19.60;;;12.95;;
53533;SDS011;39421;53.204;6.568;2023-11-21T08:52:48;18.83;;;12.27;;
53533;SDS011;39421;53.204;6.568;2023-11-21T08:55:14;19.00;;;12.65;;
53533;SDS011;39421;53.204;6.568;2023-11-21T08:57:41;17.08;;;11.23;;
53533;SDS011;39421;53.204;6.568;2023-11-21T09:00:09;16.33;;;10.68;;
53533;SDS011;39421;53.204;6.568;2023-11-21T09:02:42;16.02;;;10.73;;
53533;SDS011;39421;53.204;6.568;2023-11-21T09:05:09;16.88;;;10.77;;
53533;SDS011;39421;53.204;6.568;2023-11-21T09:07:36;16.80;;;10.82;;
53533;SDS011;39421;53.204;6.568;2023-11-21T09:10:05;16.50;;;10.35;;
53533;SDS011;39421;53.204;6.568;2023-11-21T09:12:34;17.10;;;10.80;;
53533;SDS011;39421;53.204;6.568;2023-11-21T09:15:04;15.52;;;10.38;;
53533;SDS011;39421;53.204;6.568;2023-11-21T09:17:30;16.52;;;10.75;;
53533;SDS011;39421;53.204;6.568;2023-11-21T09:19:56;15.85;;;10.57;;
53533;SDS011;39421;53.204;6.568;2023-11-21T09:22:22;16.02;;;10.40;;
53533;SDS011;39421;53.204;6.568;2023-11-21T09:24:52;16.50;;;10.80;;
53533;SDS011;39421;53.204;6.568;2023-11-21T09:27:18;15.57;;;9.82;;
53533;SDS011;39421;53.204;6.568;2023-11-21T09:29:46;16.58;;;10.27;;
53533;SDS011;39421;53.204;6.568;2023-11-21T09:32:14;15.80;;;10.48;;
53533;SDS011;39421;53.204;6.568;2023-11-21T09:34:41;15.63;;;10.55;;
53533;SDS011;39421;53.204;6.568;2023-11-21T09:37:07;15.52;;;10.35;;
53533;SDS011;39421;53.204;6.568;2023-11-21T09:39:34;15.13;;;9.90;;
53533;SDS011;39421;53.204;6.568;2023-11-21T09:42:11;15.38;;;9.77;;
53533;SDS011;39421;53.204;6.568;2023-11-21T09:44:59;16.80;;;10.20;;
53533;SDS011;39421;53.204;6.568;2023-11-21T09:47:29;15.70;;;9.68;;
53533;SDS011;39421;53.204;6.568;2023-11-21T09:49:56;16.48;;;10.00;;
53533;SDS011;39421;53.204;6.568;2023-11-21T09:52:24;15.35;;;9.50;;
53533;SDS011;39421;53.204;6.568;2023-11-21T09:54:51;14.93;;;9.23;;
53533;SDS011;39421;53.204;6.568;2023-11-21T09:57:21;14.70;;;9.32;;
53533;SDS011;39421;53.204;6.568;2023-11-21T09:59:49;14.02;;;8.93;;
53533;SDS011;39421;53.204;6.568;2023-11-21T10:02:20;13.60;;;8.52;;
53533;SDS011;39421;53.204;6.568;2023-11-21T10:04:51;13.05;;;7.97;;
53533;SDS011;39421;53.204;6.568;2023-11-21T10:07:17;12.63;;;8.05;;
53533;SDS011;39421;53.204;6.568;2023-11-21T10:09:44;13.10;;;7.88;;
53533;SDS011;39421;53.204;6.568;2023-11-21T10:12:10;13.05;;;7.80;;
53533;SDS011;39421;53.204;6.568;2023-11-21T10:14:37;13.68;;;7.90;;
53533;SDS011;39421;53.204;6.568;2023-11-21T10:17:07;13.63;;;7.90;;
53533;SDS011;39421;53.204;6.568;2023-11-21T10:19:35;13.32;;;7.45;;
53533;SDS011;39421;53.204;6.568;2023-11-21T10:22:02;12.82;;;7.38;;
53533;SDS011;39421;53.204;6.568;2023-11-21T10:24:28;12.18;;;7.32;;
53533;SDS011;39421;53.204;6.568;2023-11-21T10:26:55;11.65;;;6.95;;
53533;SDS011;39421;53.204;6.568;2023-11-21T10:29:21;12.05;;;7.10;;
53533;SDS011;39421;53.204;6.568;2023-11-21T10:31:49;11.80;;;7.07;;
53533;SDS011;39421;53.204;6.568;2023-11-21T10:34:16;11.83;;;6.73;;
53533;SDS011;39421;53.204;6.568;2023-11-21T10:36:43;11.23;;;6.63;;
53533;SDS011;39421;53.204;6.568;2023-11-21T10:39:09;11.52;;;6.93;;
53533;SDS011;39421;53.204;6.568;2023-11-21T10:41:43;12.18;;;6.95;;
53533;SDS011;39421;53.204;6.568;2023-11-21T10:44:10;12.32;;;6.70;;
53533;SDS011;39421;53.204;6.568;2023-11-21T10:46:39;12.02;;;6.80;;
53533;SDS011;39421;53.204;6.568;2023-11-21T10:49:07;11.57;;;6.68;;
53533;SDS011;39421;53.204;6.568;2023-11-21T10:51:34;10.68;;;6.60;;
53533;SDS011;39421;53.204;6.568;2023-11-21T10:54:00;11.55;;;6.72;;
53533;SDS011;39421;53.204;6.568;2023-11-21T10:56:26;11.82;;;6.78;;
53533;SDS011;39421;53.204;6.568;2023-11-21T10:58:55;11.70;;;7.03;;
53533;SDS011;39421;53.204;6.568;2023-11-21T11:01:22;11.43;;;6.53;;
53533;SDS011;39421;53.204;6.568;2023-11-21T11:03:52;11.15;;;6.75;;
53533;SDS011;39421;53.204;6.568;2023-11-21T11:06:19;12.00;;;7.05;;
53533;SDS011;39421;53.204;6.568;2023-11-21T11:08:46;11.85;;;6.97;;
53533;SDS011;39421;53.204;6.568;2023-11-21T11:11:13;11.80;;;6.90;;
53533;SDS011;39421;53.204;6.568;2023-11-21T11:13:43;12.15;;;6.78;;
53533;SDS011;39421;53.204;6.568;2023-11-21T11:16:10;11.98;;;6.85;;
53533;SDS011;39421;53.204;6.568;2023-11-21T11:18:42;10.03;;;5.90;;
53533;SDS011;39421;53.204;6.568;2023-11-21T11:29:39;10.95;;;5.82;;
53533;SDS011;39421;53.204;6.568;2023-11-21T11:31:37;9.97;;;5.57;;
53533;SDS011;39421;53.204;6.568;2023-11-21T11:34:21;10.57;;;5.57;;
53533;SDS011;39421;53.204;6.568;2023-11-21T11:36:53;9.60;;;4.90;;
53533;SDS011;39421;53.204;6.568;2023-11-21T11:39:37;9.88;;;5.50;;
53533;SDS011;39421;53.204;6.568;2023-11-21T11:42:06;9.65;;;5.53;;
53533;SDS011;39421;53.204;6.568;2023-11-21T11:47:17;11.25;;;6.45;;
53533;SDS011;39421;53.204;6.568;2023-11-21T11:52:45;10.63;;;5.95;;
53533;SDS011;39421;53.204;6.568;2023-11-21T11:55:12;11.05;;;6.00;;
53533;SDS011;39421;53.204;6.568;2023-11-21T11:57:48;10.10;;;5.77;;
53533;SDS011;39421;53.204;6.568;2023-11-21T12:02:49;9.93;;;5.60;;
53533;SDS011;39421;53.204;6.568;2023-11-21T12:05:19;9.63;;;5.38;;
53533;SDS011;39421;53.204;6.568;2023-11-21T12:07:50;10.00;;;5.60;;
53533;SDS011;39421;53.204;6.568;2023-11-21T12:10:20;9.27;;;5.25;;
53533;SDS011;39421;53.204;6.568;2023-11-21T12:12:56;9.80;;;5.40;;
53533;SDS011;39421;53.204;6.568;2023-11-21T12:15:23;10.60;;;5.47;;
53533;SDS011;39421;53.204;6.568;2023-11-21T12:17:50;9.43;;;4.70;;
53533;SDS011;39421;53.204;6.568;2023-11-21T12:20:20;9.93;;;5.70;;
53533;SDS011;39421;53.204;6.568;2023-11-21T12:22:47;10.13;;;5.05;;
53533;SDS011;39421;53.204;6.568;2023-11-21T12:25:17;10.18;;;5.50;;
53533;SDS011;39421;53.204;6.568;2023-11-21T12:27:44;10.50;;;5.90;;
53533;SDS011;39421;53.204;6.568;2023-11-21T12:30:11;10.65;;;5.75;;
53533;SDS011;39421;53.204;6.568;2023-11-21T12:32:47;10.20;;;5.22;;
53533;SDS011;39421;53.204;6.568;2023-11-21T12:35:13;10.60;;;5.07;;
53533;SDS011;39421;53.204;6.568;2023-11-21T12:37:41;10.68;;;5.70;;
53533;SDS011;39421;53.204;6.568;2023-11-21T12:40:10;10.70;;;6.10;;
53533;SDS011;39421;53.204;6.568;2023-11-21T12:42:37;10.23;;;5.93;;
53533;SDS011;39421;53.204;6.568;2023-11-21T12:47:40;10.10;;;5.65;;
53533;SDS011;39421;53.204;6.568;2023-11-21T12:50:06;10.45;;;5.90;;
53533;SDS011;39421;53.204;6.568;2023-11-21T12:52:39;10.43;;;6.40;;
53533;SDS011;39421;53.204;6.568;2023-11-21T12:55:05;10.60;;;6.22;;
53533;SDS011;39421;53.204;6.568;2023-11-21T12:57:33;11.27;;;6.50;;
53533;SDS011;39421;53.204;6.568;2023-11-21T12:59:59;10.88;;;6.47;;
53533;SDS011;39421;53.204;6.568;2023-11-21T13:02:36;11.02;;;6.60;;
53533;SDS011;39421;53.204;6.568;2023-11-21T13:05:03;10.63;;;6.40;;
53533;SDS011;39421;53.204;6.568;2023-11-21T13:07:41;11.55;;;6.35;;
53533;SDS011;39421;53.204;6.568;2023-11-21T13:10:16;10.10;;;5.85;;
53533;SDS011;39421;53.204;6.568;2023-11-21T13:12:43;10.85;;;5.90;;
53533;SDS011;39421;53.204;6.568;2023-11-21T13:15:13;10.82;;;5.60;;
53533;SDS011;39421;53.204;6.568;2023-11-21T13:17:46;10.98;;;5.70;;
53533;SDS011;39421;53.204;6.568;2023-11-21T13:20:13;10.60;;;5.95;;
53533;SDS011;39421;53.204;6.568;2023-11-21T13:23:06;11.13;;;5.97;;
53533;SDS011;39421;53.204;6.568;2023-11-21T13:25:32;10.80;;;5.53;;
53533;SDS011;39421;53.204;6.568;2023-11-21T13:27:58;10.93;;;5.35;;
53533;SDS011;39421;53.204;6.568;2023-11-21T13:30:26;9.20;;;4.72;;
53533;SDS011;39421;53.204;6.568;2023-11-21T13:32:56;10.05;;;4.68;;
53533;SDS011;39421;53.204;6.568;2023-11-21T13:35:25;9.45;;;4.82;;
53533;SDS011;39421;53.204;6.568;2023-11-21T13:38:10;9.77;;;4.72;;
53533;SDS011;39421;53.204;6.568;2023-11-21T13:40:37;9.40;;;4.80;;
53533;SDS011;39421;53.204;6.568;2023-11-21T13:43:12;9.65;;;5.10;;
53533;SDS011;39421;53.204;6.568;2023-11-21T13:45:39;9.13;;;4.73;;
53533;SDS011;39421;53.204;6.568;2023-11-21T13:48:06;9.70;;;5.22;;
53533;SDS011;39421;53.204;6.568;2023-11-21T13:50:38;11.48;;;5.30;;
53533;SDS011;39421;53.204;6.568;2023-11-21T13:53:11;10.80;;;5.60;;
53533;SDS011;39421;53.204;6.568;2023-11-21T13:55:48;11.32;;;5.97;;
53533;SDS011;39421;53.204;6.568;2023-11-21T13:58:15;9.95;;;5.30;;
53533;SDS011;39421;53.204;6.568;2023-11-21T14:00:48;10.98;;;5.45;;
53533;SDS011;39421;53.204;6.568;2023-11-21T14:03:22;10.43;;;5.15;;
53533;SDS011;39421;53.204;6.568;2023-11-21T14:05:57;9.35;;;5.07;;
53533;SDS011;39421;53.204;6.568;2023-11-21T14:08:26;9.65;;;5.45;;
53533;SDS011;39421;53.204;6.568;2023-11-21T14:10:55;10.60;;;5.13;;
53533;SDS011;39421;53.204;6.568;2023-11-21T14:13:28;9.60;;;5.22;;
53533;SDS011;39421;53.204;6.568;2023-11-21T14:15:54;10.30;;;5.00;;
53533;SDS011;39421;53.204;6.568;2023-11-21T14:18:25;10.75;;;5.05;;
53533;SDS011;39421;53.204;6.568;2023-11-21T14:20:56;9.37;;;5.13;;
53533;SDS011;39421;53.204;6.568;2023-11-21T14:23:23;9.70;;;4.93;;
53533;SDS011;39421;53.204;6.568;2023-11-21T14:25:49;9.18;;;5.20;;
53533;SDS011;39421;53.204;6.568;2023-11-21T14:28:16;9.18;;;4.53;;
53533;SDS011;39421;53.204;6.568;2023-11-21T14:30:44;9.32;;;4.60;;
53533;SDS011;39421;53.204;6.568;2023-11-21T14:33:11;11.25;;;4.90;;
53533;SDS011;39421;53.204;6.568;2023-11-21T14:35:37;8.70;;;4.18;;
53533;SDS011;39421;53.204;6.568;2023-11-21T14:38:03;9.33;;;4.63;;
53533;SDS011;39421;53.204;6.568;2023-11-21T14:40:33;9.35;;;4.32;;
53533;SDS011;39421;53.204;6.568;2023-11-21T14:43:04;9.25;;;4.63;;
53533;SDS011;39421;53.204;6.568;2023-11-21T14:45:31;9.15;;;4.30;;
53533;SDS011;39421;53.204;6.568;2023-11-21T14:47:57;8.35;;;4.00;;
53533;SDS011;39421;53.204;6.568;2023-11-21T14:50:51;8.77;;;4.40;;
53533;SDS011;39421;53.204;6.568;2023-11-21T14:53:26;7.80;;;3.80;;